Time;durP1;ratioP1;P1;durP2;ratioP2;P2;SDS_P1;SDS_P2;PMS_P1;PMS_P2;Temp;Humidity;BMP_temperature;BMP_pressure;BME280_temperature;BME280_humidity;BME280_pressure;Samples;Min_cycle;Max_cycle;Signal;HPM_P1;HPM_P2
2022/07/14 00:01:40;;;;;;;5.18;2.75;;;23.80;95.90;;;;;;5090033;28;20142;-73
2022/07/14 00:04:06;;;;;;;5.05;2.95;;;23.70;96.00;;;;;;5096822;28;20020;-72
2022/07/14 00:06:33;;;;;;;3.42;3.00;;;23.60;96.30;;;;;;5096278;28;20020;-73
2022/07/14 00:09:00;;;;;;;5.50;3.28;;;23.50;96.30;;;;;;5094240;28;20061;-73
2022/07/14 00:11:26;;;;;;;6.13;2.78;;;23.50;96.40;;;;;;5098252;28;20020;-73
2022/07/14 00:13:52;;;;;;;4.63;2.88;;;23.50;96.90;;;;;;5097252;28;20468;-72
2022/07/14 00:16:19;;;;;;;5.82;2.88;;;23.50;96.70;;;;;;5092516;28;20016;-73
2022/07/14 00:18:45;;;;;;;10.77;3.67;;;23.40;97.10;;;;;;5099647;28;20091;-72
2022/07/14 00:21:15;;;;;;;4.65;3.30;;;23.40;97.00;;;;;;5096142;28;20016;-73
2022/07/14 00:23:45;;;;;;;4.67;3.37;;;23.30;97.40;;;;;;5082676;28;20021;-73
2022/07/14 00:26:12;;;;;;;7.90;3.53;;;23.30;97.70;;;;;;5093234;28;20290;-73
2022/07/14 00:28:39;;;;;;;4.10;3.00;;;23.20;97.80;;;;;;5095223;28;20033;-73
2022/07/14 00:31:09;;;;;;;10.00;2.97;;;23.20;98.00;;;;;;5094888;28;20020;-73
2022/07/14 00:33:36;;;;;;;3.80;3.17;;;23.10;98.30;;;;;;5087616;28;20024;-72
2022/07/14 00:36:02;;;;;;;4.55;2.92;;;23.10;98.60;;;;;;5098736;28;20028;-73
2022/07/14 00:38:28;;;;;;;6.95;3.65;;;23.00;98.80;;;;;;5078883;28;20024;-73
2022/07/14 00:40:54;;;;;;;6.13;3.40;;;22.90;99.40;;;;;;5079986;28;20070;-73
2022/07/14 00:43:20;;;;;;;16.27;3.60;;;22.80;99.70;;;;;;5082105;28;20028;-73
2022/07/14 00:45:46;;;;;;;8.20;3.58;;;22.80;99.70;;;;;;5083369;28;20082;-72
2022/07/14 00:48:16;;;;;;;11.70;3.63;;;22.80;99.90;;;;;;5087521;28;20040;-73
2022/07/14 00:50:44;;;;;;;8.63;3.83;;;22.80;99.90;;;;;;5092066;28;20087;-73
2022/07/14 00:53:11;;;;;;;5.45;3.45;;;22.70;99.90;;;;;;5091614;28;20044;-73
2022/07/14 00:55:40;;;;;;;5.25;3.70;;;22.70;99.90;;;;;;5089164;28;20327;-73
2022/07/14 00:58:06;;;;;;;6.43;4.20;;;22.70;99.90;;;;;;5094598;28;20024;-73
2022/07/14 01:00:32;;;;;;;6.38;3.80;;;22.60;99.90;;;;;;5090519;28;20077;-73
2022/07/14 01:02:57;;;;;;;5.13;4.07;;;22.60;99.90;;;;;;5096550;28;20024;-73
2022/07/14 01:05:23;;;;;;;5.70;4.38;;;22.50;99.90;;;;;;5095728;28;20399;-73
2022/07/14 01:07:50;;;;;;;4.90;4.38;;;22.50;99.90;;;;;;5098692;28;20032;-73
2022/07/14 01:10:16;;;;;;;8.05;4.90;;;22.50;99.90;;;;;;5096755;28;20031;-73
2022/07/14 01:12:46;;;;;;;5.13;4.32;;;22.50;99.90;;;;;;5080440;28;20430;-73
2022/07/14 01:15:14;;;;;;;6.20;5.30;;;22.50;99.90;;;;;;5084059;28;20016;-72
2022/07/14 01:17:40;;;;;;;8.00;5.00;;;22.40;99.90;;;;;;5080453;28;20036;-72
2022/07/14 01:20:07;;;;;;;8.38;5.57;;;22.40;99.90;;;;;;5093978;28;20035;-72
2022/07/14 01:22:33;;;;;;;6.43;5.68;;;22.40;99.90;;;;;;5084122;28;20033;-73
2022/07/14 01:24:59;;;;;;;9.73;6.22;;;22.30;99.90;;;;;;5091830;28;20046;-73
2022/07/14 01:27:24;;;;;;;6.93;6.25;;;22.30;99.90;;;;;;5088772;28;20028;-72
2022/07/14 01:29:50;;;;;;;10.50;6.88;;;22.30;99.90;;;;;;5089044;28;20059;-72
2022/07/14 01:32:16;;;;;;;11.68;7.10;;;22.20;99.90;;;;;;5092641;28;20480;-73
2022/07/14 01:34:42;;;;;;;9.38;7.50;;;22.30;99.90;;;;;;5089641;28;20088;-73
2022/07/14 01:37:08;;;;;;;10.13;7.82;;;22.20;99.90;;;;;;5094363;28;20024;-73
2022/07/14 01:39:34;;;;;;;8.68;7.57;;;22.20;99.90;;;;;;5092774;28;20037;-73
2022/07/14 01:42:00;;;;;;;11.60;7.72;;;22.20;99.90;;;;;;5097493;28;20472;-73
2022/07/14 01:44:25;;;;;;;12.05;8.05;;;22.20;99.90;;;;;;5081480;28;20072;-73
2022/07/14 01:46:51;;;;;;;9.20;7.75;;;22.20;99.90;;;;;;5078614;28;20400;-73
2022/07/14 01:49:17;;;;;;;11.57;9.45;;;22.10;99.90;;;;;;5081506;28;20052;-72
2022/07/14 01:51:43;;;;;;;11.18;8.48;;;22.10;99.90;;;;;;5080086;28;20098;-73
2022/07/14 01:54:09;;;;;;;12.57;8.65;;;22.10;99.90;;;;;;5084567;28;20092;-73
2022/07/14 01:56:41;;;;;;;13.57;8.60;;;22.10;99.90;;;;;;5084697;28;20025;-73
2022/07/14 01:59:08;;;;;;;15.23;9.85;;;22.10;99.90;;;;;;5086134;28;20369;-73
2022/07/14 02:01:40;;;;;;;14.18;9.43;;;22.10;99.90;;;;;;5086696;28;20374;-73
2022/07/14 02:04:14;;;;;;;13.23;9.45;;;22.00;99.90;;;;;;5090751;28;20035;-73
2022/07/14 02:06:44;;;;;;;12.90;9.02;;;22.00;99.90;;;;;;5090073;28;20016;-73
2022/07/14 02:09:10;;;;;;;12.60;9.73;;;22.00;99.90;;;;;;5094674;28;20506;-73
2022/07/14 02:14:21;;;;;;;12.98;8.70;;;22.00;99.90;;;;;;5096768;28;20542;-72
2022/07/14 02:16:47;;;;;;;11.75;9.15;;;22.00;99.90;;;;;;5093430;28;20035;-73
2022/07/14 02:19:13;;;;;;;14.98;9.20;;;22.00;99.90;;;;;;5078637;28;20017;-72
2022/07/14 02:21:40;;;;;;;13.13;8.73;;;22.00;99.90;;;;;;5078868;28;20024;-73
2022/07/14 02:24:07;;;;;;;9.40;8.40;;;22.00;99.90;;;;;;5082407;28;20016;-72
2022/07/14 02:26:34;;;;;;;12.45;8.43;;;21.90;99.90;;;;;;5090766;28;20413;-72
2022/07/14 02:29:00;;;;;;;15.38;8.38;;;21.90;99.90;;;;;;5089495;28;20106;-73
2022/07/14 02:31:26;;;;;;;9.55;8.00;;;21.90;99.90;;;;;;5088370;28;20035;-72
2022/07/14 02:33:52;;;;;;;12.25;8.55;;;21.80;99.90;;;;;;5092883;28;20024;-73
2022/07/14 02:36:17;;;;;;;10.15;8.10;;;21.80;99.90;;;;;;5092535;28;20393;-72
2022/07/14 02:38:43;;;;;;;9.70;7.85;;;21.80;99.90;;;;;;5095966;28;20020;-73
2022/07/14 02:41:10;;;;;;;14.20;8.43;;;21.70;99.90;;;;;;5096006;28;20032;-72
2022/07/14 02:43:36;;;;;;;9.45;7.45;;;21.60;99.90;;;;;;5088006;28;20473;-72
2022/07/14 02:46:03;;;;;;;13.07;7.85;;;21.60;99.90;;;;;;5077979;28;20028;-73
2022/07/14 02:48:30;;;;;;;11.60;8.32;;;21.60;99.90;;;;;;5079364;28;20099;-73
2022/07/14 02:51:00;;;;;;;8.85;7.93;;;21.60;99.90;;;;;;5082793;28;20473;-73
2022/07/14 02:53:26;;;;;;;;;;;21.60;99.90;;;;;;5109740;28;20033;-73
2022/07/14 02:55:52;;;;;;;10.77;8.93;;;21.60;99.90;;;;;;5086351;28;19911;-72
2022/07/14 02:58:18;;;;;;;11.88;8.48;;;21.60;99.90;;;;;;5085489;28;20497;-73
2022/07/14 03:00:44;;;;;;;11.68;9.07;;;21.60;99.90;;;;;;5086754;28;20441;-73
2022/07/14 03:03:10;;;;;;;12.15;8.80;;;21.50;99.90;;;;;;5089588;28;20423;-73
2022/07/14 03:05:36;;;;;;;10.35;9.00;;;21.60;99.90;;;;;;5072540;28;20112;-73
2022/07/14 03:08:02;;;;;;;14.07;9.18;;;21.50;99.90;;;;;;5085506;28;20126;-72
2022/07/14 03:10:28;;;;;;;13.10;9.23;;;21.50;99.90;;;;;;5090354;28;20480;-72
2022/07/14 03:12:54;;;;;;;13.73;9.30;;;21.40;99.90;;;;;;5095648;28;20024;-73
2022/07/14 03:15:19;;;;;;;12.57;9.88;;;21.40;99.90;;;;;;5090009;28;20016;-73
2022/07/14 03:17:45;;;;;;;12.27;10.35;;;21.40;99.90;;;;;;5076248;28;20028;-72
2022/07/14 03:20:12;;;;;;;12.27;10.70;;;21.30;99.90;;;;;;5078869;28;20016;-72
2022/07/14 03:22:38;;;;;;;13.40;9.98;;;21.30;99.90;;;;;;5078786;28;20032;-73
2022/07/14 03:25:05;;;;;;;14.25;10.98;;;21.30;99.90;;;;;;5088634;28;20030;-72
2022/07/14 03:27:32;;;;;;;14.50;11.18;;;21.20;99.90;;;;;;5086450;28;20024;-72
2022/07/14 03:29:58;;;;;;;10.40;9.30;;;21.30;99.90;;;;;;5089017;28;20472;-72
2022/07/14 03:32:24;;;;;;;11.10;9.00;;;21.30;99.90;;;;;;5091416;28;20054;-73
2022/07/14 03:34:50;;;;;;;10.57;9.50;;;21.30;99.90;;;;;;5090006;28;20031;-72
2022/07/14 03:37:16;;;;;;;11.73;9.20;;;21.30;99.90;;;;;;5093318;28;20043;-72
2022/07/14 03:39:42;;;;;;;12.80;10.15;;;21.30;99.90;;;;;;5092876;28;20416;-73
2022/07/14 03:42:07;;;;;;;12.80;10.13;;;21.20;99.90;;;;;;5084249;28;20025;-72
2022/07/14 03:44:33;;;;;;;11.77;9.75;;;21.20;99.90;;;;;;5108658;28;20017;-72
2022/07/14 03:46:59;;;;;;;10.23;9.15;;;21.20;99.90;;;;;;5087686;28;20548;-73
2022/07/14 03:49:25;;;;;;;14.02;9.20;;;21.20;99.90;;;;;;5084721;28;20129;-72
2022/07/14 03:51:50;;;;;;;13.05;9.57;;;21.20;99.90;;;;;;5080567;28;20048;-72
2022/07/14 03:54:16;;;;;;;11.98;9.50;;;21.20;99.90;;;;;;5085937;28;20464;-72
2022/07/14 03:56:42;;;;;;;11.68;9.90;;;21.20;99.90;;;;;;5083381;28;20017;-72
2022/07/14 03:59:10;;;;;;;10.55;8.57;;;21.20;99.90;;;;;;5086634;28;20046;-72
2022/07/14 04:01:37;;;;;;;14.52;9.77;;;21.20;99.90;;;;;;5086194;28;20025;-72
2022/07/14 04:04:04;;;;;;;11.88;10.07;;;21.20;99.90;;;;;;5093590;28;20055;-72
2022/07/14 04:06:30;;;;;;;10.38;9.30;;;21.10;99.90;;;;;;5094653;28;20052;-72
2022/07/14 04:08:57;;;;;;;11.23;9.75;;;21.20;99.90;;;;;;5096223;28;20545;-72
2022/07/14 04:11:23;;;;;;;13.02;9.93;;;21.20;99.90;;;;;;5098105;28;20020;-72
2022/07/14 04:13:49;;;;;;;11.05;9.95;;;21.20;99.90;;;;;;5097827;28;20092;-72
2022/07/14 04:16:14;;;;;;;13.85;9.90;;;21.20;99.90;;;;;;5087720;28;20146;-72
2022/07/14 04:18:40;;;;;;;11.32;10.05;;;21.20;99.90;;;;;;5081374;28;20040;-72
2022/07/14 04:21:08;;;;;;;13.95;10.95;;;21.20;99.90;;;;;;5080745;28;20016;-72
2022/07/14 04:23:35;;;;;;;13.07;11.40;;;21.30;99.90;;;;;;5085646;28;20066;-72
2022/07/14 04:26:02;;;;;;;14.20;11.07;;;21.30;99.90;;;;;;5094894;28;20024;-72
2022/07/14 04:28:29;;;;;;;16.05;11.90;;;21.30;99.90;;;;;;5092118;28;20012;-72
2022/07/14 04:30:55;;;;;;;12.60;11.23;;;21.30;99.90;;;;;;5090286;28;20081;-72
2022/07/14 04:33:21;;;;;;;13.48;11.60;;;21.30;99.90;;;;;;5111711;28;20013;-72
2022/07/14 04:35:48;;;;;;;12.02;10.70;;;21.30;99.90;;;;;;5090628;28;20028;-72
2022/07/14 04:38:14;;;;;;;13.30;11.60;;;21.30;99.90;;;;;;5096450;28;20008;-72
2022/07/14 04:40:50;;;;;;;16.38;12.52;;;21.30;99.90;;;;;;5098271;28;20027;-72
2022/07/14 04:43:17;;;;;;;15.05;12.48;;;21.30;99.90;;;;;;5078401;28;20049;-72
2022/07/14 04:45:43;;;;;;;16.38;12.18;;;21.30;99.90;;;;;;5079850;28;20033;-72
2022/07/14 04:48:09;;;;;;;13.52;11.57;;;21.30;99.90;;;;;;5081029;28;20016;-72
2022/07/14 04:53:19;;;;;;;16.58;12.52;;;21.40;99.90;;;;;;5083064;28;20522;-72
2022/07/14 04:55:45;;;;;;;12.60;11.40;;;21.40;99.90;;;;;;5086221;28;20031;-72
2022/07/14 04:58:11;;;;;;;14.00;12.02;;;21.50;99.90;;;;;;5086757;28;20032;-72
2022/07/14 05:00:36;;;;;;;14.55;12.43;;;21.50;99.90;;;;;;5087825;28;20028;-72
2022/07/14 05:03:03;;;;;;;16.50;11.57;;;21.60;99.90;;;;;;5091612;28;20024;-72
2022/07/14 05:05:29;;;;;;;13.63;11.93;;;21.70;99.90;;;;;;5090073;28;20031;-72
2022/07/14 05:07:55;;;;;;;13.75;12.05;;;21.70;99.90;;;;;;5093326;28;20025;-71
2022/07/14 05:10:21;;;;;;;12.77;10.70;;;21.80;99.90;;;;;;5091580;28;20032;-72
2022/07/14 05:12:47;;;;;;;13.77;10.60;;;21.80;99.90;;;;;;5096547;28;20063;-72
2022/07/14 05:15:13;;;;;;;13.32;9.63;;;21.90;99.90;;;;;;5094588;28;20012;-71
2022/07/14 05:17:38;;;;;;;12.05;10.68;;;22.00;99.90;;;;;;5098374;28;20054;-72
2022/07/14 05:20:05;;;;;;;14.32;10.15;;;22.10;99.90;;;;;;5084223;28;20029;-72
2022/07/14 05:22:38;;;;;;;14.15;10.93;;;22.20;99.90;;;;;;5089761;28;20029;-72
2022/07/14 05:25:09;;;;;;;10.60;9.50;;;22.30;99.90;;;;;;5121347;27;20035;-72
2022/07/14 05:27:36;;;;;;;11.60;10.40;;;22.30;99.90;;;;;;5087115;28;20111;-73
2022/07/14 05:30:11;;;;;;;12.68;10.25;;;22.40;99.90;;;;;;5089227;28;20158;-72
2022/07/14 05:32:37;;;;;;;10.85;9.23;;;22.40;99.90;;;;;;5129462;27;20031;-72
2022/07/14 05:35:04;;;;;;;12.50;10.15;;;22.50;99.90;;;;;;5094471;28;20460;-72
2022/07/14 05:37:30;;;;;;;10.10;9.10;;;22.60;99.90;;;;;;5096150;28;20017;-72
2022/07/14 05:39:56;;;;;;;10.50;9.30;;;22.70;99.90;;;;;;5097233;28;20028;-72
2022/07/14 05:42:23;;;;;;;9.82;8.82;;;22.70;99.90;;;;;;5087960;28;20063;-72
2022/07/14 05:44:49;;;;;;;11.40;10.15;;;22.80;99.90;;;;;;5089742;28;20396;-72
2022/07/14 05:47:15;;;;;;;9.32;8.43;;;22.80;99.90;;;;;;5095491;28;20479;-72
2022/07/14 05:49:41;;;;;;;11.70;8.50;;;22.90;99.90;;;;;;5096836;28;20032;-73
2022/07/14 05:52:10;;;;;;;12.10;8.32;;;23.00;99.90;;;;;;5097896;28;20054;-73
2022/07/14 05:54:36;;;;;;;8.68;7.78;;;23.10;99.90;;;;;;5093229;28;20021;-72
2022/07/14 05:57:02;;;;;;;8.93;7.97;;;23.20;99.90;;;;;;5078994;28;20025;-73
2022/07/14 05:59:28;;;;;;;9.90;8.27;;;23.30;99.90;;;;;;5084581;28;20020;-72
2022/07/14 06:01:54;;;;;;;10.00;7.32;;;23.40;99.90;;;;;;5082318;28;20477;-72
2022/07/14 06:04:20;;;;;;;8.30;7.18;;;23.50;99.90;;;;;;5088698;28;20058;-72
2022/07/14 06:06:46;;;;;;;9.68;6.88;;;23.60;99.90;;;;;;5084341;28;20104;-73
2022/07/14 06:09:12;;;;;;;8.98;6.90;;;23.60;99.90;;;;;;5091239;28;20028;-72
2022/07/14 06:11:44;;;;;;;10.38;7.07;;;23.70;99.90;;;;;;5092768;28;20023;-72
2022/07/14 06:14:10;;;;;;;7.93;7.07;;;23.80;99.90;;;;;;5092565;28;20495;-72
2022/07/14 06:16:36;;;;;;;11.38;6.38;;;23.90;99.90;;;;;;5093239;28;20031;-72
2022/07/14 06:19:02;;;;;;;9.88;7.00;;;24.00;99.90;;;;;;5096007;28;20476;-73
2022/07/14 06:21:28;;;;;;;9.45;6.80;;;24.10;99.90;;;;;;5094290;28;20070;-73
2022/07/14 06:23:54;;;;;;;7.13;5.88;;;24.20;99.90;;;;;;5096183;28;20028;-74
2022/07/14 06:26:20;;;;;;;7.50;6.43;;;24.30;99.90;;;;;;5091068;28;20024;-75
2022/07/14 06:28:48;;;;;;;6.22;5.63;;;24.40;99.90;;;;;;5095827;28;20031;-74
2022/07/14 06:31:15;;;;;;;5.60;5.03;;;24.50;99.90;;;;;;5092097;28;20034;-74
2022/07/14 06:33:41;;;;;;;7.95;6.40;;;24.60;99.90;;;;;;5096815;28;20099;-74
2022/07/14 06:36:08;;;;;;;6.25;5.60;;;24.60;99.90;;;;;;5081896;28;20043;-74
2022/07/14 06:38:37;;;;;;;6.40;5.60;;;24.70;99.90;;;;;;5087600;28;20053;-74
2022/07/14 06:41:03;;;;;;;6.10;5.50;;;24.90;99.90;;;;;;5090763;28;20048;-74
2022/07/14 06:43:29;;;;;;;6.25;5.28;;;24.90;99.90;;;;;;5094374;28;20527;-74
2022/07/14 06:45:54;;;;;;;7.88;5.57;;;25.00;99.90;;;;;;5092969;28;20020;-73
2022/07/14 06:48:23;;;;;;;9.07;5.22;;;25.00;99.90;;;;;;5088585;28;20024;-74
2022/07/14 06:50:49;;;;;;;8.85;5.25;;;25.00;99.90;;;;;;5091677;28;20031;-74
2022/07/14 06:53:15;;;;;;;7.13;5.30;;;25.10;99.90;;;;;;5089031;28;20535;-74
2022/07/14 06:55:40;;;;;;;6.20;5.32;;;25.20;99.90;;;;;;5094342;28;20089;-72
2022/07/14 06:58:06;;;;;;;9.95;5.32;;;25.30;99.90;;;;;;5077941;28;20044;-72
2022/07/14 07:00:32;;;;;;;7.65;5.57;;;25.50;99.90;;;;;;5093772;28;20016;-73
2022/07/14 07:02:58;;;;;;;9.27;4.95;;;25.60;99.90;;;;;;5094316;28;20063;-72
2022/07/14 07:08:08;;;;;;;9.60;4.50;;;25.70;99.90;;;;;;5095875;28;20035;-73
2022/07/14 07:10:40;;;;;;;5.45;4.05;;;25.70;99.90;;;;;;5095266;28;20016;-72
2022/07/14 07:13:07;;;;;;;6.40;4.32;;;25.80;99.90;;;;;;5094698;28;20507;-72
2022/07/14 07:15:36;;;;;;;7.07;4.63;;;25.90;99.90;;;;;;5094002;28;20087;-73
2022/07/14 07:18:04;;;;;;;7.97;4.85;;;26.00;99.90;;;;;;5093486;28;20165;-73
2022/07/14 07:20:30;;;;;;;6.65;4.68;;;26.10;99.90;;;;;;5094682;28;20400;-73
2022/07/14 07:22:55;;;;;;;7.25;4.55;;;26.10;99.90;;;;;;5091334;28;20031;-73
2022/07/14 07:25:21;;;;;;;8.45;4.50;;;26.20;99.90;;;;;;5081688;28;20031;-74
2022/07/14 07:27:47;;;;;;;6.55;5.07;;;26.40;99.90;;;;;;5091965;28;20028;-74
2022/07/14 07:30:13;;;;;;;6.75;4.90;;;26.50;99.90;;;;;;5081856;28;20032;-74
2022/07/14 07:32:39;;;;;;;6.32;3.63;;;26.60;99.90;;;;;;5082342;28;20024;-74
2022/07/14 07:35:05;;;;;;;4.65;4.20;;;26.70;99.90;;;;;;5095366;28;20024;-75
2022/07/14 07:37:31;;;;;;;4.80;3.95;;;26.80;99.90;;;;;;5078173;28;20021;-74
2022/07/14 07:39:58;;;;;;;7.15;4.53;;;26.90;99.90;;;;;;5079505;28;20044;-74
2022/07/14 07:42:25;;;;;;;5.55;4.65;;;27.10;99.90;;;;;;5091956;28;20032;-74
2022/07/14 07:44:51;;;;;;;7.13;4.38;;;27.20;99.90;;;;;;5099078;28;20027;-75
2022/07/14 07:47:17;;;;;;;12.52;4.25;;;27.30;99.90;;;;;;5098234;28;20016;-74
2022/07/14 07:49:42;;;;;;;5.40;3.30;;;27.40;99.90;;;;;;5094984;28;20053;-74
2022/07/14 07:52:08;;;;;;;8.50;3.85;;;27.40;99.90;;;;;;5098946;28;20068;-74
2022/07/14 07:54:34;;;;;;;5.65;3.92;;;27.50;99.90;;;;;;5098973;28;20031;-75
2022/07/14 07:57:00;;;;;;;11.85;4.18;;;27.60;99.90;;;;;;5090261;28;20070;-74
2022/07/14 07:59:26;;;;;;;4.60;3.55;;;27.70;99.90;;;;;;5087718;28;20472;-74
2022/07/14 08:01:53;;;;;;;4.38;3.45;;;27.80;99.90;;;;;;5095315;28;20093;-74
2022/07/14 08:04:18;;;;;;;6.75;3.75;;;27.80;99.90;;;;;;5100096;28;20035;-71
2022/07/14 08:06:44;;;;;;;7.28;3.78;;;27.90;99.90;;;;;;5091021;28;20028;-71
2022/07/14 08:09:11;;;;;;;4.78;3.65;;;28.00;99.90;;;;;;5098324;28;20046;-72
2022/07/14 08:11:42;;;;;;;6.07;3.80;;;28.10;99.90;;;;;;5097758;28;20430;-73
2022/07/14 08:16:55;;;;;;;5.60;3.28;;;28.30;99.90;;;;;;5086052;28;20023;-73
2022/07/14 08:19:21;;;;;;;6.43;3.63;;;28.30;99.90;;;;;;5094024;28;20028;-73
2022/07/14 08:21:47;;;;;;;5.65;3.22;;;28.40;99.90;;;;;;5086160;28;20024;-72
2022/07/14 08:24:13;;;;;;;6.22;3.65;;;28.50;99.90;;;;;;5084809;28;20048;-72
2022/07/14 08:26:40;;;;;;;6.28;3.58;;;28.60;99.90;;;;;;5086509;28;20031;-72
2022/07/14 08:29:06;;;;;;;3.65;2.88;;;28.70;99.90;;;;;;5094628;28;20031;-72
2022/07/14 08:31:32;;;;;;;5.65;3.30;;;28.80;99.90;;;;;;5083047;28;20297;-72
2022/07/14 08:33:58;;;;;;;6.38;3.10;;;28.80;99.90;;;;;;5092014;28;20085;-73
2022/07/14 08:36:24;;;;;;;5.28;3.10;;;28.90;99.90;;;;;;5097937;28;20028;-73
2022/07/14 08:38:50;;;;;;;4.60;3.53;;;28.90;99.90;;;;;;5095977;28;20480;-72
2022/07/14 08:41:15;;;;;;;7.00;3.45;;;28.90;99.90;;;;;;5087834;28;20020;-72
2022/07/14 08:43:42;;;;;;;6.03;3.83;;;29.00;99.90;;;;;;5080055;28;20031;-73
2022/07/14 08:46:08;;;;;;;4.97;3.45;;;29.20;99.90;;;;;;5094663;28;20024;-73
2022/07/14 08:48:34;;;;;;;6.50;3.55;;;29.30;99.90;;;;;;5096295;28;20077;-72
2022/07/14 08:51:00;;;;;;;6.28;3.03;;;29.30;99.90;;;;;;5097312;28;20039;-72
2022/07/14 08:53:27;;;;;;;5.10;3.40;;;29.50;99.90;;;;;;5098648;28;20035;-73
2022/07/14 08:55:53;;;;;;;4.97;3.22;;;29.60;99.90;;;;;;5081617;28;20020;-73
2022/07/14 08:58:19;;;;;;;4.90;3.63;;;29.70;99.90;;;;;;5079284;28;20432;-72
2022/07/14 09:00:45;;;;;;;4.90;3.22;;;29.60;99.90;;;;;;5083539;28;20024;-73
2022/07/14 09:03:11;;;;;;;6.32;3.38;;;29.30;99.90;;;;;;5078077;28;20052;-72
2022/07/14 09:05:41;;;;;;;3.88;3.00;;;29.40;99.90;;;;;;5078689;28;20033;-72
2022/07/14 09:08:07;;;;;;;8.23;3.30;;;29.60;99.90;;;;;;5078034;28;20377;-73
2022/07/14 09:10:33;;;;;;;4.95;2.85;;;29.80;99.90;;;;;;5097811;28;20028;-72
2022/07/14 09:13:11;;;;;;;4.80;2.78;;;29.90;99.80;;;;;;5088432;28;20086;-72
2022/07/14 09:15:45;;;;;;;6.88;3.00;;;30.10;99.80;;;;;;5092518;28;20020;-73
2022/07/14 09:18:21;;;;;;;7.35;3.15;;;30.20;98.00;;;;;;5089715;28;20024;-73
2022/07/14 09:20:47;;;;;;;5.65;3.10;;;30.50;98.80;;;;;;5094680;28;20024;-73
2022/07/14 09:23:13;;;;;;;5.18;3.13;;;30.50;97.40;;;;;;5094998;28;20107;-73
2022/07/14 09:25:39;;;;;;;5.15;3.03;;;30.60;96.80;;;;;;5097662;28;20475;-72
2022/07/14 09:28:08;;;;;;;5.75;3.55;;;30.70;96.60;;;;;;5096013;28;20024;-72
2022/07/14 09:30:34;;;;;;;5.80;3.22;;;30.70;94.40;;;;;;5077871;28;20024;-73
2022/07/14 09:33:04;;;;;;;4.38;2.88;;;30.70;95.90;;;;;;5082031;28;20530;-73
2022/07/14 09:35:36;;;;;;;4.20;2.90;;;30.80;95.40;;;;;;5087110;28;20020;-72
2022/07/14 09:38:15;;;;;;;5.30;2.92;;;30.90;95.50;;;;;;5096364;28;20489;-73
2022/07/14 09:40:41;;;;;;;3.65;2.65;;;30.90;94.90;;;;;;5096359;28;20051;-73
2022/07/14 09:43:08;;;;;;;4.68;3.20;;;31.00;95.40;;;;;;5085351;28;20513;-74
2022/07/14 09:45:37;;;;;;;3.53;2.72;;;31.00;94.10;;;;;;5092087;28;20388;-74
2022/07/14 09:48:11;;;;;;;5.50;3.25;;;31.10;94.80;;;;;;5090731;28;20408;-74
2022/07/14 09:50:44;;;;;;;4.05;2.90;;;31.10;94.30;;;;;;5087439;28;20016;-74
2022/07/14 09:53:30;;;;;;;5.25;3.10;;;31.20;94.80;;;;;;5093795;28;20043;-74
2022/07/14 09:56:01;;;;;;;6.18;3.25;;;31.20;94.70;;;;;;5082899;28;20095;-74
2022/07/14 09:58:40;;;;;;;6.68;2.85;;;31.30;93.90;;;;;;5080362;28;20093;-74
2022/07/14 10:01:14;;;;;;;3.30;2.78;;;31.40;93.80;;;;;;5082163;28;20613;-74
2022/07/14 10:03:41;;;;;;;9.73;3.50;;;31.40;93.10;;;;;;5082743;28;20020;-74
2022/07/14 10:06:08;;;;;;;5.28;3.42;;;31.40;93.00;;;;;;5087386;28;20024;-74
2022/07/14 10:08:35;;;;;;;5.38;3.05;;;31.40;93.60;;;;;;5086646;28;20031;-75
2022/07/14 10:11:05;;;;;;;6.53;3.20;;;31.30;92.70;;;;;;5096043;28;20521;-74
2022/07/14 10:13:31;;;;;;;5.07;3.10;;;31.20;93.20;;;;;;5092728;28;20028;-75
2022/07/14 10:15:58;;;;;;;3.05;2.40;;;31.30;93.00;;;;;;5087160;28;20484;-74
2022/07/14 10:18:26;;;;;;;3.88;3.03;;;31.50;93.50;;;;;;5091577;28;20034;-74
2022/07/14 10:20:54;;;;;;;3.50;2.90;;;31.60;92.40;;;;;;5078175;28;20369;-74
2022/07/14 10:23:21;;;;;;;5.40;2.95;;;31.70;92.30;;;;;;5080615;28;20389;-74
2022/07/14 10:25:52;;;;;;;4.25;3.13;;;31.80;91.90;;;;;;5086176;28;20028;-74
2022/07/14 10:28:19;;;;;;;5.25;3.15;;;31.80;91.20;;;;;;5087537;28;20028;-74
2022/07/14 10:30:57;;;;;;;8.48;3.15;;;31.90;91.90;;;;;;5090382;28;20020;-74
2022/07/14 10:33:44;;;;;;;4.65;2.88;;;31.90;90.50;;;;;;5087348;28;20031;-74
2022/07/14 10:36:31;;;;;;;8.80;2.92;;;32.10;90.40;;;;;;5084452;28;20461;-75
2022/07/14 10:39:06;;;;;;;5.35;2.92;;;32.20;90.60;;;;;;5087228;28;20442;-75
2022/07/14 10:41:51;;;;;;;5.43;3.55;;;32.30;87.80;;;;;;5089792;28;20028;-74
2022/07/14 10:44:20;;;;;;;2.90;2.30;;;32.30;87.80;;;;;;5093786;28;20009;-75
2022/07/14 10:46:49;;;;;;;3.80;3.03;;;32.40;89.40;;;;;;5093831;28;20024;-75
2022/07/14 10:49:17;;;;;;;6.30;2.72;;;32.50;89.10;;;;;;5095242;28;20048;-75
2022/07/14 10:51:52;;;;;;;4.75;3.05;;;32.50;85.10;;;;;;5095571;28;20056;-75
2022/07/14 10:54:26;;;;;;;4.40;3.10;;;32.50;85.10;;;;;;5079369;28;20051;-75
2022/07/14 10:57:13;;;;;;;7.90;2.88;;;32.60;85.20;;;;;;5077561;28;20031;-75
2022/07/14 10:59:41;;;;;;;3.55;3.05;;;32.60;86.60;;;;;;5080064;28;20039;-75
2022/07/14 11:02:12;;;;;;;4.95;3.33;;;32.70;84.90;;;;;;5084130;28;20060;-75
2022/07/14 11:05:18;;;;;;;5.82;2.90;;;32.80;83.50;;;;;;5097128;28;20034;-75
2022/07/14 11:08:07;;;;;;;4.40;3.35;;;32.90;84.10;;;;;;5094273;28;20119;-77
2022/07/14 11:10:32;;;;;;;5.90;3.63;;;33.00;82.70;;;;;;5096492;28;20026;-77
2022/07/14 11:13:04;;;;;;;5.03;2.72;;;33.10;84.00;;;;;;5099422;28;20103;-77
2022/07/14 11:15:59;;;;;;;4.35;3.08;;;33.10;84.10;;;;;;5095880;28;20027;-77
2022/07/14 11:18:33;;;;;;;4.85;3.25;;;33.20;81.90;;;;;;5077792;28;20032;-77
2022/07/14 11:21:17;;;;;;;4.95;3.28;;;33.10;80.70;;;;;;5092280;28;20031;-77
2022/07/14 11:23:46;;;;;;;5.32;3.00;;;33.20;80.70;;;;;;5090107;28;20067;-77
2022/07/14 11:26:38;;;;;;;5.55;2.75;;;33.30;81.40;;;;;;5092055;28;20020;-77
2022/07/14 11:29:09;;;;;;;7.28;3.58;;;33.30;80.00;;;;;;5086392;28;20095;-77
2022/07/14 11:31:45;;;;;;;4.35;2.70;;;33.30;78.40;;;;;;5091560;28;20062;-77
2022/07/14 11:37:19;;;;;;;6.68;2.55;;;33.40;77.60;;;;;;5097014;28;20077;-76
2022/07/14 11:39:44;;;;;;;5.35;2.30;;;33.40;78.10;;;;;;5082933;28;20028;-76
2022/07/14 11:42:12;;;;;;;4.43;2.40;;;33.40;78.10;;;;;;5093231;28;20020;-77
2022/07/14 11:44:41;;;;;;;4.57;3.08;;;33.50;76.90;;;;;;5095048;28;20020;-77
2022/07/14 11:47:20;;;;;;;5.57;3.25;;;33.60;73.70;;;;;;5094840;28;20024;-76
2022/07/14 11:50:09;;;;;;;4.30;3.13;;;33.60;73.20;;;;;;5089263;28;20028;-76
2022/07/14 11:52:38;;;;;;;4.50;3.45;;;33.70;73.30;;;;;;5097426;28;20040;-76
2022/07/14 11:55:07;;;;;;;5.78;3.45;;;33.80;74.40;;;;;;5089568;28;20500;-76
2022/07/14 11:57:33;;;;;;;5.63;3.10;;;33.80;72.00;;;;;;5082740;28;20028;-76
2022/07/14 12:00:07;;;;;;;5.15;2.92;;;33.90;71.80;;;;;;5082419;28;20024;-77
2022/07/14 12:02:32;;;;;;;4.32;2.88;;;33.90;70.40;;;;;;5086836;28;20027;-76
2022/07/14 12:05:00;;;;;;;4.80;3.00;;;34.00;68.20;;;;;;5084630;28;20154;-76
2022/07/14 12:07:27;;;;;;;7.65;3.20;;;34.00;68.30;;;;;;5099190;28;20419;-77
2022/07/14 12:09:53;;;;;;;5.57;3.20;;;34.00;69.50;;;;;;5086639;28;20027;-76
2022/07/14 12:12:24;;;;;;;4.65;2.78;;;34.10;67.80;;;;;;5092230;28;20020;-76
2022/07/14 12:14:53;;;;;;;4.53;2.78;;;34.20;69.30;;;;;;5090527;28;20021;-76
2022/07/14 12:17:21;;;;;;;5.78;3.25;;;34.20;69.60;;;;;;5094743;28;20065;-76
2022/07/14 12:19:48;;;;;;;6.60;2.83;;;34.40;67.90;;;;;;5092032;28;20080;-76
2022/07/14 12:22:15;;;;;;;12.13;2.83;;;34.40;66.70;;;;;;5096335;28;20063;-76
2022/07/14 12:24:41;;;;;;;4.10;2.67;;;34.50;65.70;;;;;;5096081;28;20054;-76
2022/07/14 12:27:11;;;;;;;4.10;2.72;;;34.60;67.80;;;;;;5098323;28;20047;-76
2022/07/14 12:29:49;;;;;;;3.95;2.67;;;34.70;66.60;;;;;;5086374;28;20028;-75
2022/07/14 12:32:15;;;;;;;6.35;2.65;;;34.60;65.80;;;;;;5081104;28;20051;-76
2022/07/14 12:34:43;;;;;;;7.20;2.90;;;34.60;65.40;;;;;;5099556;28;20016;-75
2022/07/14 12:37:10;;;;;;;4.72;2.63;;;34.80;63.70;;;;;;5099176;28;20008;-76
2022/07/14 12:39:38;;;;;;;3.25;2.72;;;34.90;63.80;;;;;;5089280;28;20400;-76
2022/07/14 12:42:05;;;;;;;4.90;2.88;;;34.90;62.70;;;;;;5091109;28;20028;-76
2022/07/14 12:44:31;;;;;;;5.18;2.88;;;34.90;62.00;;;;;;5096445;28;20099;-76
2022/07/14 12:47:11;;;;;;;5.78;2.60;;;35.00;64.10;;;;;;5097870;28;20035;-77
2022/07/14 12:49:48;;;;;;;4.13;2.88;;;35.00;62.00;;;;;;5085664;28;20020;-76
2022/07/14 12:52:15;;;;;;;4.57;2.50;;;35.00;62.80;;;;;;5099481;28;20036;-77
2022/07/14 12:54:42;;;;;;;3.75;2.55;;;35.10;61.80;;;;;;5083291;28;20062;-77
2022/07/14 12:57:21;;;;;;;6.40;2.47;;;35.20;62.80;;;;;;5082376;28;20083;-76
2022/07/14 12:59:48;;;;;;;6.15;3.15;;;35.20;64.00;;;;;;5085389;28;20111;-77
2022/07/14 13:02:24;;;;;;;3.58;2.65;;;35.30;62.10;;;;;;5087585;28;20111;-77